createdAt,value
2023-01-28T00:01:46.803Z,42.63
2023-01-28T00:04:16.548Z,47.10
2023-01-28T00:06:44.558Z,46.57
2023-01-28T00:09:13.256Z,43.07
2023-01-28T00:11:41.230Z,50.10
2023-01-28T00:14:09.321Z,44.73
2023-01-28T00:16:37.321Z,40.47
2023-01-28T00:19:05.464Z,44.90
2023-01-28T00:21:35.239Z,43.23
2023-01-28T00:24:03.338Z,41.47
2023-01-28T00:26:31.298Z,43.37
2023-01-28T00:28:59.218Z,39.70
2023-01-28T00:31:28.292Z,40.40
2023-01-28T00:33:57.756Z,40.77
2023-01-28T00:36:27.310Z,42.27
2023-01-28T00:38:58.739Z,39.60
2023-01-28T00:41:28.734Z,39.97
2023-01-28T00:43:59.705Z,40.17
2023-01-28T00:46:27.930Z,38.10
2023-01-28T00:48:55.962Z,43.40
2023-01-28T00:51:24.215Z,40.83
2023-01-28T00:53:52.959Z,43.60
2023-01-28T00:56:22.292Z,39.27
2023-01-28T00:58:50.428Z,39.83
2023-01-28T01:01:21.674Z,43.77
2023-01-28T01:03:57.384Z,38.93
2023-01-28T01:06:26.436Z,39.33
2023-01-28T01:08:54.373Z,38.70
2023-01-28T01:11:24.756Z,40.00
2023-01-28T01:13:54.913Z,30.97
2023-01-28T01:16:24.197Z,35.50
2023-01-28T01:18:52.965Z,37.30
2023-01-28T01:21:22.703Z,36.20
2023-01-28T01:23:50.914Z,36.10
2023-01-28T01:26:19.344Z,37.00
2023-01-28T01:28:49.092Z,33.37
2023-01-28T01:31:18.684Z,38.30
2023-01-28T01:33:48.833Z,34.37
2023-01-28T01:36:19.585Z,37.63
2023-01-28T01:38:47.696Z,37.07
2023-01-28T01:41:24.596Z,37.93
2023-01-28T01:43:55.847Z,31.90
2023-01-28T01:46:31.709Z,31.23
2023-01-28T01:49:05.374Z,29.63
2023-01-28T01:51:35.529Z,30.90
2023-01-28T01:54:05.339Z,34.43
2023-01-28T01:56:39.594Z,31.77
2023-01-28T01:59:12.126Z,31.80
2023-01-28T02:01:40.734Z,33.87
2023-01-28T02:04:14.859Z,31.63
2023-01-28T02:06:43.460Z,31.87
2023-01-28T02:09:24.769Z,29.17
2023-01-28T02:11:54.931Z,28.87
2023-01-28T02:14:30.828Z,30.50
2023-01-28T02:16:59.980Z,29.50
2023-01-28T02:19:34.887Z,32.03
2023-01-28T02:22:20.967Z,33.90
2023-01-28T02:25:22.397Z,32.87
2023-01-28T02:28:14.863Z,40.30
2023-01-28T02:30:50.906Z,46.90
2023-01-28T02:33:26.845Z,53.53
2023-01-28T02:35:55.911Z,42.93
2023-01-28T02:38:30.070Z,43.13
2023-01-28T02:41:06.871Z,42.40
2023-01-28T02:43:38.140Z,40.87
2023-01-28T02:46:35.776Z,39.73
2023-01-28T02:49:06.138Z,37.13
2023-01-28T02:51:46.921Z,35.83
2023-01-28T02:54:26.145Z,37.07
2023-01-28T02:57:00.515Z,37.23
2023-01-28T02:59:36.996Z,37.83
2023-01-28T03:02:16.536Z,39.90
2023-01-28T03:04:51.391Z,36.10
2023-01-28T03:07:20.863Z,29.27
2023-01-28T03:09:51.178Z,36.53
2023-01-28T03:12:40.927Z,33.00
2023-01-28T03:15:32.672Z,36.17
2023-01-28T03:18:22.237Z,43.57
2023-01-28T03:21:13.808Z,36.33
2023-01-28T03:24:07.205Z,31.87
2023-01-28T03:26:57.687Z,34.20
2023-01-28T03:29:44.855Z,36.87
2023-01-28T03:32:34.669Z,41.63
2023-01-28T03:35:20.676Z,39.80
2023-01-28T03:37:48.785Z,37.07
2023-01-28T03:40:22.913Z,37.93
2023-01-28T03:42:52.259Z,44.40
2023-01-28T03:45:30.777Z,32.33
2023-01-28T03:48:00.014Z,35.83
2023-01-28T03:50:27.940Z,33.63
2023-01-28T03:53:13.543Z,34.73
2023-01-28T03:55:53.250Z,37.20
2023-01-28T03:58:23.367Z,35.17
2023-01-28T04:00:52.327Z,32.13
2023-01-28T04:03:22.624Z,35.13
2023-01-28T04:06:04.734Z,33.13
2023-01-28T04:08:53.110Z,30.87
2023-01-28T04:11:44.171Z,29.03
2023-01-28T04:14:16.527Z,34.50
2023-01-28T04:17:11.054Z,32.40
2023-01-28T04:19:41.817Z,34.87
2023-01-28T04:22:12.500Z,33.80
2023-01-28T04:24:42.059Z,32.77
2023-01-28T04:27:10.286Z,32.23
2023-01-28T04:29:38.219Z,41.57
2023-01-28T04:32:35.948Z,31.83
2023-01-28T04:35:28.474Z,29.97
2023-01-28T04:38:08.645Z,31.53
2023-01-28T04:40:51.113Z,35.07
2023-01-28T04:43:28.025Z,31.93
2023-01-28T04:46:14.450Z,28.53
2023-01-28T04:48:49.257Z,36.00
2023-01-28T04:51:33.802Z,37.77
2023-01-28T04:54:14.172Z,38.20
2023-01-28T04:56:42.301Z,28.63
2023-01-28T04:59:11.051Z,31.13
2023-01-28T05:01:40.018Z,31.37
2023-01-28T05:04:09.814Z,33.63
2023-01-28T05:06:41.164Z,36.30
2023-01-28T05:09:16.332Z,32.87
2023-01-28T05:11:45.021Z,34.67
2023-01-28T05:14:14.347Z,31.87
2023-01-28T05:16:46.695Z,29.07
2023-01-28T05:19:15.981Z,33.30
2023-01-28T05:21:48.233Z,31.00
2023-01-28T05:24:25.023Z,32.80
2023-01-28T05:26:53.010Z,36.20
2023-01-28T05:29:20.956Z,30.33
2023-01-28T05:31:49.729Z,32.10
2023-01-28T05:34:18.122Z,30.93
2023-01-28T05:36:47.821Z,37.23
2023-01-28T05:39:29.769Z,29.03
2023-01-28T05:41:58.208Z,34.07
2023-01-28T05:44:26.236Z,35.83
2023-01-28T05:47:12.634Z,36.43
2023-01-28T05:49:52.653Z,34.57
2023-01-28T05:52:45.858Z,31.87
2023-01-28T05:55:22.255Z,31.23
2023-01-28T05:57:50.257Z,34.70
2023-01-28T06:00:21.622Z,32.50
2023-01-28T06:02:51.805Z,37.47
2023-01-28T06:05:20.993Z,39.13
2023-01-28T06:07:51.696Z,41.40
2023-01-28T06:10:19.640Z,31.60
2023-01-28T06:12:48.266Z,34.00
2023-01-28T06:15:35.755Z,51.23
2023-01-28T06:18:13.496Z,42.73
2023-01-28T06:20:43.123Z,44.00
2023-01-28T06:23:12.737Z,42.63
2023-01-28T06:25:40.732Z,46.10
2023-01-28T06:28:12.162Z,42.20
2023-01-28T06:30:40.141Z,50.03
2023-01-28T06:33:08.176Z,49.57
2023-01-28T06:35:37.099Z,44.97
2023-01-28T06:38:05.130Z,40.93
2023-01-28T06:40:34.438Z,45.57
2023-01-28T06:43:02.361Z,42.77
2023-01-28T06:45:30.279Z,41.17
2023-01-28T06:47:58.257Z,43.07
2023-01-28T06:50:26.187Z,40.30
2023-01-28T06:52:54.048Z,49.03
2023-01-28T06:55:21.920Z,45.10
2023-01-28T06:57:51.171Z,51.87
2023-01-28T07:00:20.165Z,43.60
2023-01-28T07:02:48.072Z,47.73
2023-01-28T07:05:16.124Z,41.33
2023-01-28T07:07:44.805Z,35.10
2023-01-28T07:10:13.244Z,43.17
2023-01-28T07:12:41.440Z,47.77
2023-01-28T07:15:11.927Z,43.83
2023-01-28T07:17:41.320Z,41.23
2023-01-28T07:20:11.500Z,44.97
2023-01-28T07:22:41.145Z,40.17
2023-01-28T07:25:10.753Z,43.17
2023-01-28T07:27:38.690Z,46.37
2023-01-28T07:30:07.919Z,48.17
2023-01-28T07:32:37.190Z,49.60
2023-01-28T07:35:05.523Z,48.53
2023-01-28T07:37:33.505Z,43.77
2023-01-28T07:40:01.534Z,46.13
2023-01-28T07:42:29.536Z,49.43
2023-01-28T07:44:57.617Z,46.47
2023-01-28T07:47:25.544Z,43.27
2023-01-28T07:49:54.841Z,37.73
2023-01-28T07:52:22.787Z,36.23
2023-01-28T07:54:50.723Z,39.77
2023-01-28T07:57:23.244Z,34.17
2023-01-28T07:59:51.728Z,40.97
2023-01-28T08:02:20.081Z,37.67
2023-01-28T08:04:48.184Z,37.80
2023-01-28T08:07:18.482Z,38.80
2023-01-28T08:09:46.391Z,40.47
2023-01-28T08:12:14.439Z,40.83
2023-01-28T08:14:42.386Z,42.40
2023-01-28T08:17:10.389Z,37.83
2023-01-28T08:19:38.267Z,42.57
2023-01-28T08:22:06.204Z,41.20
2023-01-28T08:24:35.493Z,42.23
2023-01-28T08:27:04.140Z,41.87
2023-01-28T08:29:32.056Z,42.00
2023-01-28T08:32:00.078Z,38.77
2023-01-28T08:34:27.977Z,35.73
2023-01-28T08:36:55.880Z,39.40
2023-01-28T08:39:23.821Z,43.47
2023-01-28T08:41:53.076Z,40.43
2023-01-28T08:44:21.045Z,40.23
2023-01-28T08:46:49.003Z,48.77
2023-01-28T08:49:16.884Z,44.00
2023-01-28T08:51:44.796Z,41.83
2023-01-28T08:54:12.783Z,46.20
2023-01-28T08:56:42.978Z,45.63
2023-01-28T08:59:12.574Z,43.20
2023-01-28T09:01:40.558Z,44.30
2023-01-28T09:04:08.517Z,43.80
2023-01-28T09:06:36.471Z,40.73
2023-01-28T09:09:04.593Z,43.77
2023-01-28T09:11:32.582Z,44.43
2023-01-28T09:14:00.665Z,52.37
2023-01-28T09:16:30.187Z,41.40
2023-01-28T09:18:58.230Z,41.87
2023-01-28T09:21:26.123Z,45.20
2023-01-28T09:23:55.784Z,44.50
2023-01-28T09:26:23.779Z,39.63
2023-01-28T09:28:51.714Z,40.63
2023-01-28T09:31:19.720Z,40.37
2023-01-28T09:33:54.825Z,49.77
2023-01-28T09:36:22.737Z,40.87
2023-01-28T09:38:50.775Z,38.70
2023-01-28T09:41:26.739Z,41.27
2023-01-28T09:44:09.176Z,48.10
2023-01-28T09:46:39.030Z,39.60
2023-01-28T09:49:20.074Z,46.23
2023-01-28T09:51:52.859Z,44.70
2023-01-28T09:54:29.222Z,63.00
2023-01-28T09:57:05.767Z,45.20
2023-01-28T09:59:36.619Z,37.83
2023-01-28T10:02:21.831Z,40.53
2023-01-28T10:04:59.589Z,38.37
2023-01-28T10:07:37.358Z,42.77
2023-01-28T10:10:14.404Z,44.40
2023-01-28T10:13:01.410Z,40.90
2023-01-28T10:16:08.664Z,40.17
2023-01-28T10:18:41.071Z,42.17
2023-01-28T10:21:16.699Z,38.87
2023-01-28T10:23:54.001Z,36.17
2023-01-28T10:26:25.017Z,43.30
2023-01-28T10:28:57.228Z,37.50
2023-01-28T10:31:31.281Z,34.70
2023-01-28T10:34:00.226Z,40.37
2023-01-28T10:36:30.162Z,37.33
2023-01-28T10:38:58.304Z,43.37
2023-01-28T10:41:26.886Z,40.20
2023-01-28T10:43:54.947Z,38.03
2023-01-28T10:46:28.033Z,45.17
2023-01-28T10:49:00.980Z,38.03
2023-01-28T10:51:35.687Z,42.03
2023-01-28T10:54:04.246Z,41.60
2023-01-28T10:56:35.720Z,44.67
2023-01-28T10:59:05.286Z,42.63
2023-01-28T11:01:45.491Z,46.33
2023-01-28T11:04:20.226Z,43.03
2023-01-28T11:06:58.331Z,49.37
2023-01-28T11:09:30.869Z,48.40
2023-01-28T11:11:59.666Z,45.60
2023-01-28T11:14:28.486Z,44.50
2023-01-28T11:16:59.037Z,45.07
2023-01-28T11:19:36.462Z,45.10
2023-01-28T11:22:05.810Z,41.07
2023-01-28T11:24:34.984Z,38.83
2023-01-28T11:27:16.696Z,42.83
2023-01-28T11:29:45.345Z,37.73
2023-01-28T11:32:20.817Z,38.73
2023-01-28T11:34:53.678Z,38.63
2023-01-28T11:37:24.716Z,42.43
2023-01-28T11:40:02.895Z,41.63
2023-01-28T11:42:32.038Z,34.37
2023-01-28T11:44:59.956Z,40.93
2023-01-28T11:47:42.193Z,42.93
2023-01-28T11:50:25.377Z,43.07
2023-01-28T11:53:08.932Z,41.07
2023-01-28T11:55:50.579Z,38.13
2023-01-28T11:58:24.940Z,40.67
2023-01-28T12:01:03.539Z,41.30
2023-01-28T12:03:53.768Z,36.97
2023-01-28T12:06:47.236Z,39.13
2023-01-28T12:09:26.540Z,32.70
2023-01-28T12:12:14.763Z,37.30
2023-01-28T12:15:05.035Z,37.27
2023-01-28T12:17:45.307Z,35.10
2023-01-28T12:20:20.799Z,41.90
2023-01-28T12:23:12.878Z,37.17
2023-01-28T12:25:54.892Z,37.00
2023-01-28T12:28:38.743Z,37.63
2023-01-28T12:31:21.566Z,38.43
2023-01-28T12:34:05.237Z,34.40
2023-01-28T12:36:45.226Z,38.97
2023-01-28T12:39:23.612Z,41.27
2023-01-28T12:42:00.448Z,40.27
2023-01-28T12:44:33.935Z,42.30
2023-01-28T12:47:07.063Z,36.73
2023-01-28T12:49:40.220Z,34.07
2023-01-28T12:52:15.432Z,31.67
2023-01-28T12:54:54.654Z,34.83
2023-01-28T12:57:27.376Z,33.93
2023-01-28T13:00:04.274Z,37.87
2023-01-28T13:02:39.255Z,35.10
2023-01-28T13:05:12.909Z,38.63
2023-01-28T13:07:45.099Z,42.00
2023-01-28T13:10:20.791Z,39.80
2023-01-28T13:12:51.003Z,42.03
2023-01-28T13:15:20.859Z,38.60
2023-01-28T13:17:57.803Z,37.97
2023-01-28T13:20:36.619Z,39.77
2023-01-28T13:23:07.516Z,40.40
2023-01-28T13:25:36.222Z,39.07
2023-01-28T13:28:07.502Z,37.03
2023-01-28T13:30:47.991Z,36.67
2023-01-28T13:33:31.337Z,44.60
2023-01-28T13:36:02.567Z,42.87
2023-01-28T13:38:31.733Z,39.63
2023-01-28T13:41:06.279Z,40.10
2023-01-28T13:43:41.496Z,40.00
2023-01-28T13:46:12.051Z,31.50
2023-01-28T13:48:44.029Z,33.70
2023-01-28T13:51:20.477Z,32.23
2023-01-28T13:53:54.640Z,39.63
2023-01-28T13:56:26.617Z,36.53
2023-01-28T13:59:26.803Z,41.60
2023-01-28T14:02:34.623Z,39.60
2023-01-28T14:05:33.015Z,35.27
2023-01-28T14:08:36.273Z,35.23
2023-01-28T14:11:18.596Z,36.63
2023-01-28T14:14:05.394Z,35.93
2023-01-28T14:16:43.096Z,42.70
2023-01-28T14:19:14.399Z,39.57
2023-01-28T14:21:42.610Z,40.07
2023-01-28T14:24:17.854Z,40.27
2023-01-28T14:26:56.882Z,49.33
2023-01-28T14:29:39.591Z,39.07
2023-01-28T14:32:13.905Z,48.23
2023-01-28T14:34:43.604Z,49.63
2023-01-28T14:37:15.138Z,46.20
2023-01-28T14:39:46.995Z,49.17
2023-01-28T14:42:21.350Z,50.43
2023-01-28T14:44:58.273Z,42.17
2023-01-28T14:47:48.852Z,40.97
2023-01-28T14:50:34.415Z,45.07
2023-01-28T14:53:26.338Z,41.40
2023-01-28T14:56:00.143Z,44.60
2023-01-28T14:58:32.617Z,47.30
2023-01-28T15:01:01.902Z,47.03
2023-01-28T15:03:31.802Z,45.90
2023-01-28T15:06:05.129Z,45.40
2023-01-28T15:08:33.322Z,43.97
2023-01-28T15:11:03.096Z,47.00
2023-01-28T15:13:35.140Z,50.10
2023-01-28T15:16:03.215Z,58.60
2023-01-28T15:18:36.185Z,59.53
2023-01-28T15:21:05.438Z,52.03
2023-01-28T15:23:36.279Z,52.63
2023-01-28T15:26:07.256Z,52.90
2023-01-28T15:28:38.424Z,43.07
2023-01-28T15:31:07.199Z,46.43
2023-01-28T15:33:36.604Z,34.00
2023-01-28T15:36:06.300Z,27.70
2023-01-28T15:38:34.308Z,28.13
2023-01-28T15:41:06.375Z,32.63
2023-01-28T15:43:37.277Z,35.23
2023-01-28T15:46:11.441Z,42.33
2023-01-28T15:48:43.625Z,27.87
2023-01-28T15:51:21.055Z,27.10
2023-01-28T15:53:52.953Z,34.83
2023-01-28T15:56:27.655Z,35.77
2023-01-28T15:58:56.266Z,33.70
2023-01-28T16:01:25.538Z,35.07
2023-01-28T16:04:06.530Z,30.03
2023-01-28T16:06:38.305Z,37.10
2023-01-28T16:09:08.325Z,34.17
2023-01-28T16:11:44.540Z,41.37
2023-01-28T16:14:23.779Z,36.60
2023-01-28T16:16:52.496Z,35.70
2023-01-28T16:19:34.182Z,40.50
2023-01-28T16:22:02.855Z,38.80
2023-01-28T16:24:33.246Z,32.90
2023-01-28T16:27:02.959Z,31.00
2023-01-28T16:29:32.635Z,31.97
2023-01-28T16:32:01.338Z,34.13
2023-01-28T16:34:30.781Z,28.47
2023-01-28T16:37:00.064Z,33.50
2023-01-28T16:39:28.279Z,31.50
2023-01-28T16:41:56.901Z,33.07
2023-01-28T16:44:24.913Z,35.67
2023-01-28T16:46:52.902Z,32.23
2023-01-28T16:49:21.268Z,34.37
2023-01-28T16:51:50.629Z,29.37
2023-01-28T16:54:18.816Z,36.50
2023-01-28T16:56:47.219Z,38.50
2023-01-28T16:59:17.250Z,36.13
2023-01-28T17:01:45.711Z,32.77
2023-01-28T17:04:13.898Z,38.17
2023-01-28T17:06:44.321Z,34.83
2023-01-28T17:09:15.686Z,33.20
2023-01-28T17:11:43.895Z,36.67
2023-01-28T17:14:12.659Z,41.03
2023-01-28T17:16:40.793Z,98.03
2023-01-28T17:19:08.839Z,46.90
2023-01-28T17:21:36.882Z,42.73
2023-01-28T17:24:05.942Z,41.93
2023-01-28T17:26:36.599Z,30.70
2023-01-28T17:29:05.786Z,33.20
2023-01-28T17:31:34.167Z,28.60
2023-01-28T17:34:02.552Z,39.47
2023-01-28T17:36:30.624Z,33.60
2023-01-28T17:38:58.618Z,35.37
2023-01-28T17:41:26.711Z,58.30
2023-01-28T17:43:57.151Z,43.27
2023-01-28T17:46:26.383Z,40.20
2023-01-28T17:48:54.872Z,37.87
2023-01-28T17:51:23.130Z,44.07
2023-01-28T17:53:53.378Z,48.10
2023-01-28T17:56:23.777Z,44.50
2023-01-28T17:58:52.793Z,44.60
2023-01-28T18:01:23.016Z,43.07
2023-01-28T18:03:51.046Z,37.00
2023-01-28T18:06:19.811Z,41.43
2023-01-28T18:08:48.377Z,31.33
2023-01-28T18:11:18.256Z,33.47
2023-01-28T18:13:46.243Z,33.73
2023-01-28T18:16:18.002Z,31.53
2023-01-28T18:18:47.807Z,22.67
2023-01-28T18:21:22.746Z,18.30
2023-01-28T18:23:53.866Z,18.47
2023-01-28T18:26:23.803Z,16.37
2023-01-28T18:28:52.029Z,16.73
2023-01-28T18:31:20.462Z,19.17
2023-01-28T18:33:49.999Z,20.93
2023-01-28T18:36:18.021Z,18.97
2023-01-28T18:38:46.492Z,19.57
2023-01-28T18:41:15.577Z,19.97
2023-01-28T18:43:43.927Z,22.83
2023-01-28T18:46:14.492Z,22.73
2023-01-28T18:48:42.470Z,19.60
2023-01-28T18:51:28.410Z,22.23
2023-01-28T18:53:59.536Z,17.47
2023-01-28T18:56:27.971Z,50.30
2023-01-28T18:58:57.250Z,31.10
2023-01-28T19:01:25.591Z,27.77
2023-01-28T19:03:54.787Z,24.07
2023-01-28T19:06:24.805Z,20.63
2023-01-28T19:08:54.466Z,25.57
2023-01-28T19:11:23.259Z,20.10
2023-01-28T19:13:51.640Z,24.07
2023-01-28T19:16:20.364Z,22.20
2023-01-28T19:18:54.669Z,20.87
2023-01-28T19:21:25.242Z,14.73
2023-01-28T19:23:57.582Z,15.80
2023-01-28T19:26:26.902Z,18.47
2023-01-28T19:28:55.056Z,16.83
2023-01-28T19:31:24.657Z,14.13
2023-01-28T19:33:56.255Z,18.17
2023-01-28T19:36:27.200Z,24.07
2023-01-28T19:38:58.237Z,14.50
2023-01-28T19:41:26.541Z,19.50
2023-01-28T19:43:54.491Z,15.17
2023-01-28T19:46:22.715Z,12.40
2023-01-28T19:48:50.865Z,12.37
2023-01-28T19:51:19.141Z,11.90
2023-01-28T19:53:51.316Z,13.63
2023-01-28T19:56:20.889Z,14.67
2023-01-28T19:58:48.988Z,15.17
2023-01-28T20:01:19.646Z,16.50
2023-01-28T20:03:52.750Z,19.50
2023-01-28T20:06:20.931Z,18.40
2023-01-28T20:08:54.709Z,17.07
2023-01-28T20:11:23.285Z,17.00
2023-01-28T20:13:52.661Z,16.53
2023-01-28T20:16:23.229Z,21.27
2023-01-28T20:18:52.004Z,18.37
2023-01-28T20:21:20.712Z,20.73
2023-01-28T20:23:49.710Z,17.93
2023-01-28T20:26:21.568Z,18.13
2023-01-28T20:28:49.921Z,16.20
2023-01-28T20:31:18.846Z,18.67
2023-01-28T20:33:47.214Z,21.87
2023-01-28T20:36:15.657Z,18.93
2023-01-28T20:38:45.217Z,14.70
2023-01-28T20:41:15.884Z,14.97
2023-01-28T20:43:46.227Z,17.67
2023-01-28T20:46:15.700Z,18.80
2023-01-28T20:48:44.135Z,17.87
2023-01-28T20:51:15.175Z,19.23
2023-01-28T20:53:45.637Z,18.83
2023-01-28T20:56:16.010Z,16.03
2023-01-28T20:58:45.959Z,17.70
2023-01-28T21:01:21.000Z,16.37
2023-01-28T21:03:49.443Z,17.90
2023-01-28T21:06:18.263Z,15.57
2023-01-28T21:08:46.917Z,13.60
2023-01-28T21:11:15.479Z,13.13
2023-01-28T21:13:44.719Z,13.33
2023-01-28T21:16:12.864Z,17.57
2023-01-28T21:18:41.023Z,16.63
2023-01-28T21:21:14.738Z,13.90
2023-01-28T21:23:42.842Z,15.37
2023-01-28T21:26:11.670Z,15.00
2023-01-28T21:28:39.741Z,14.80
2023-01-28T21:31:10.728Z,17.77
2023-01-28T21:33:39.227Z,15.80
2023-01-28T21:36:12.273Z,16.10
2023-01-28T21:38:40.625Z,16.27
2023-01-28T21:41:09.122Z,17.07
2023-01-28T21:43:37.377Z,18.30
2023-01-28T21:46:06.077Z,22.97
2023-01-28T21:48:35.466Z,17.33
2023-01-28T21:51:25.054Z,22.90
2023-01-28T21:53:53.189Z,19.33
2023-01-28T21:56:21.759Z,17.03
2023-01-28T21:59:07.957Z,19.57
2023-01-28T22:01:35.996Z,25.53
2023-01-28T22:04:05.636Z,24.03
2023-01-28T22:06:33.629Z,26.30
2023-01-28T22:09:02.405Z,27.03
2023-01-28T22:11:30.389Z,24.03
2023-01-28T22:13:58.334Z,18.07
2023-01-28T22:16:26.301Z,24.30
2023-01-28T22:18:54.224Z,22.83
2023-01-28T22:21:23.556Z,24.13
2023-01-28T22:23:51.446Z,36.33
2023-01-28T22:26:19.416Z,52.80
2023-01-28T22:28:47.403Z,30.60
2023-01-28T22:31:17.123Z,21.40
2023-01-28T22:33:45.512Z,17.23
2023-01-28T22:36:15.324Z,16.33
2023-01-28T22:38:46.354Z,12.13
2023-01-28T22:41:18.936Z,12.37
2023-01-28T22:43:47.931Z,13.60
2023-01-28T22:46:16.900Z,16.73
2023-01-28T22:48:45.360Z,11.90
2023-01-28T22:51:17.324Z,15.30
2023-01-28T22:53:48.062Z,12.93
2023-01-28T22:56:19.514Z,12.40
2023-01-28T22:58:47.615Z,12.43
2023-01-28T23:01:18.264Z,10.83
2023-01-28T23:03:47.728Z,11.13
2023-01-28T23:06:17.381Z,16.47
2023-01-28T23:08:47.419Z,14.13
2023-01-28T23:11:25.157Z,13.13
2023-01-28T23:14:11.312Z,14.97
2023-01-28T23:16:56.879Z,17.90
2023-01-28T23:19:42.769Z,11.73
2023-01-28T23:22:34.339Z,16.57
2023-01-28T23:25:03.694Z,17.63
2023-01-28T23:27:31.706Z,15.93
2023-01-28T23:29:59.629Z,18.03
2023-01-28T23:32:27.799Z,19.10
2023-01-28T23:34:55.730Z,12.90
2023-01-28T23:37:23.661Z,16.63
2023-01-28T23:39:51.519Z,12.80
2023-01-28T23:42:23.483Z,11.63
2023-01-28T23:44:51.429Z,14.27
2023-01-28T23:47:19.696Z,12.33
2023-01-28T23:49:47.747Z,15.63
2023-01-28T23:52:15.664Z,20.40
2023-01-28T23:54:43.540Z,17.03
2023-01-28T23:57:11.505Z,17.37
2023-01-28T23:59:40.811Z,15.87
